This is the latest recevied weather packets stored in our database for station/object TAPIOLA. If no packets are shown the sender has not sent any weather packets the latest 10 day(s).
| Time | Temp. | Humidity | Pressure | Rain* | Wind** | Luminosity | Snow |
|---|---|---|---|---|---|---|---|
| 1788595279 | 15° C | 78% | 994.5 hPa | 0 mm | - | - | - |
| 1788594289 | 14.44° C | 78% | 994.5 hPa | 0 mm | - | - | - |
| 1788593088 | 14.44° C | 81% | 994.4 hPa | 0 mm | - | - | - |
| 1788590689 | 11.67° C | 99% | 994.2 hPa | 0 mm | - | - | - |
| 1788589488 | 11.11° C | 100% | 994.1 hPa | 0 mm | - | - | - |
| 1788560688 | 10° C | 100% | 995.1 hPa | 0 mm | - | - | - |
| 1788559277 | 10.56° C | 100% | 995.2 hPa | 0 mm | - | - | - |
| 1788555677 | 10.56° C | 100% | 995.6 hPa | 0 mm | - | - | - |
| 1788542686 | 12.78° C | 98% | 997.2 hPa | 0 mm | - | - | - |
| 1788538876 | 13.33° C | 97% | 997.4 hPa | 0 mm | - | - | - |
| 1788535486 | 14.44° C | 85% | 997.5 hPa | 0 mm | - | - | - |
| 1788534076 | 15° C | 84% | 997.7 hPa | 0 mm | - | - | - |
| 1788531885 | 13.89° C | 97% | 997.8 hPa | 1.52 mm | - | - | - |
| 1788528075 | 14.44° C | 83% | 998.3 hPa | 0 mm | - | - | - |
| 1788521084 | 16.11° C | 74% | 998.1 hPa | 0 mm | - | - | - |
| 1788513885 | 16.11° C | 67% | 998.6 hPa | 0 mm | - | - | - |
| 1788512686 | 16.11° C | 75% | 998.6 hPa | 0 mm | - | - | - |
| 1788510284 | 15.56° C | 76% | 998.7 hPa | 0 mm | - | - | - |
| 1788509085 | 15° C | 82% | 998.8 hPa | 0 mm | - | - | - |
| 1788506684 | 13.33° C | 96% | 999 hPa | 0 mm | - | - | - |
| 1788505274 | 12.78° C | 98% | 999.3 hPa | 0 mm | - | - | - |
| 1788503084 | 11.67° C | 99% | 999.5 hPa | 0 mm | - | - | - |
| 1788501884 | 11.11° C | 100% | 999.7 hPa | 0 mm | - | - | - |
| 1788500684 | 10° C | 100% | 999.7 hPa | 0 mm | - | - | - |
| 1788498283 | 8.89° C | 100% | 1000 hPa | 0 mm | - | - | - |
* Rain latest hour (hover to see other rain measurements)
** Current wind speed in m/s (hover to see current wind gust speed)